Time;durP1;ratioP1;P1;durP2;ratioP2;P2;SDS_P1;SDS_P2;PMS_P1;PMS_P2;Temp;Humidity;BMP_temperature;BMP_pressure;BME280_temperature;BME280_humidity;BME280_pressure;Samples;Min_cycle;Max_cycle;Signal;HPM_P1;HPM_P2
2023/07/18 00:00:04;;;;;;;20.17;4.00;;;;;;;;;;5020223;28;20056;-72
2023/07/18 00:02:33;;;;;;;24.77;4.35;;;;;;;;;;5020378;28;20409;-70
2023/07/18 00:04:59;;;;;;;21.63;3.92;;;;;;;;;;5035895;28;20033;-72
2023/07/18 00:07:26;;;;;;;21.25;4.03;;;;;;;;;;5011942;28;20123;-73
2023/07/18 00:09:52;;;;;;;21.70;4.38;;;;;;;;;;5050865;28;20098;-69
2023/07/18 00:12:17;;;;;;;19.45;4.03;;;;;;;;;;5020693;28;20558;-71
2023/07/18 00:14:42;;;;;;;24.80;4.25;;;;;;;;;;5012546;28;20037;-72
2023/07/18 00:17:08;;;;;;;20.50;5.25;;;;;;;;;;5019155;28;20036;-71
2023/07/18 00:19:33;;;;;;;27.55;4.50;;;;;;;;;;5015825;28;20057;-72
2023/07/18 00:21:59;;;;;;;22.15;4.22;;;;;;;;;;5018964;28;20729;-72
2023/07/18 00:24:24;;;;;;;22.17;4.40;;;;;;;;;;5051793;28;20374;-72
2023/07/18 00:26:49;;;;;;;22.48;4.25;;;;;;;;;;5014929;28;20037;-72
2023/07/18 00:29:15;;;;;;;24.95;4.22;;;;;;;;;;5013166;28;20391;-72
2023/07/18 00:31:41;;;;;;;24.20;4.05;;;;;;;;;;5020090;28;20108;-70
2023/07/18 00:34:08;;;;;;;23.33;4.47;;;;;;;;;;5017472;28;20505;-72
2023/07/18 00:36:34;;;;;;;23.20;4.15;;;;;;;;;;5012537;28;20098;-72
2023/07/18 00:38:59;;;;;;;22.27;4.18;;;;;;;;;;5021048;28;20060;-72
2023/07/18 00:41:27;;;;;;;23.80;4.47;;;;;;;;;;4995729;28;20457;-72
2023/07/18 00:43:52;;;;;;;32.78;5.00;;;;;;;;;;5033351;28;20045;-73
2023/07/18 00:46:18;;;;;;;27.02;4.40;;;;;;;;;;5000918;28;20100;-72
2023/07/18 00:48:43;;;;;;;22.48;4.63;;;;;;;;;;5000443;28;20038;-71
2023/07/18 00:51:09;;;;;;;22.30;4.35;;;;;;;;;;4992368;28;20049;-72
2023/07/18 00:53:35;;;;;;;22.50;4.63;;;;;;;;;;5000703;28;20033;-71
2023/07/18 00:56:01;;;;;;;20.05;4.00;;;;;;;;;;5013205;28;20049;-71
2023/07/18 00:58:28;;;;;;;25.30;4.35;;;;;;;;;;4978598;28;20562;-72
2023/07/18 01:00:54;;;;;;;23.60;4.07;;;;;;;;;;4999195;28;20079;-72
2023/07/18 01:03:19;;;;;;;30.67;4.53;;;;;;;;;;4999436;28;20180;-72
2023/07/18 01:05:45;;;;;;;17.90;3.70;;;;;;;;;;4996621;28;21365;-72
2023/07/18 01:08:10;;;;;;;23.85;4.00;;;;;;;;;;5001149;28;20041;-72
2023/07/18 01:10:37;;;;;;;17.08;3.63;;;;;;;;;;4999087;28;20037;-72
2023/07/18 01:13:03;;;;;;;26.58;3.78;;;;;;;;;;4998691;28;21042;-72
2023/07/18 01:15:30;;;;;;;26.25;3.38;;;;;;;;;;5000045;28;20041;-71
2023/07/18 01:17:58;;;;;;;21.67;4.15;;;;;;;;;;5016996;28;20037;-72
2023/07/18 01:20:26;;;;;;;19.55;3.45;;;;;;;;;;5017769;28;20079;-71
2023/07/18 01:22:53;;;;;;;23.75;4.18;;;;;;;;;;5040618;28;20043;-72
2023/07/18 01:25:19;;;;;;;23.45;4.07;;;;;;;;;;4997676;28;20034;-70
2023/07/18 01:27:47;;;;;;;24.55;3.78;;;;;;;;;;5001134;28;20429;-71
2023/07/18 01:30:13;;;;;;;16.90;3.55;;;;;;;;;;4995589;28;20042;-72
2023/07/18 01:32:38;;;;;;;21.38;4.63;;;;;;;;;;5017373;28;20033;-72
2023/07/18 01:35:08;;;;;;;19.83;3.58;;;;;;;;;;5003500;28;20049;-72
2023/07/18 01:37:37;;;;;;;23.27;4.40;;;;;;;;;;5050883;28;20048;-72
2023/07/18 01:40:05;;;;;;;20.60;4.10;;;;;;;;;;5019966;28;20041;-73
2023/07/18 01:42:30;;;;;;;25.15;3.65;;;;;;;;;;5019992;28;20504;-72
2023/07/18 01:44:55;;;;;;;16.73;3.50;;;;;;;;;;5020788;28;20044;-71
2023/07/18 01:47:21;;;;;;;22.48;3.65;;;;;;;;;;5024298;28;20029;-70
2023/07/18 01:49:46;;;;;;;18.55;3.75;;;;;;;;;;5023115;28;20383;-71
2023/07/18 01:52:14;;;;;;;20.17;3.80;;;;;;;;;;5002246;28;20033;-71
2023/07/18 01:54:40;;;;;;;21.23;3.47;;;;;;;;;;5000249;28;20042;-71
2023/07/18 01:57:05;;;;;;;20.95;3.65;;;;;;;;;;4997923;28;20076;-72
2023/07/18 01:59:31;;;;;;;18.98;2.90;;;;;;;;;;5004532;28;20448;-71
2023/07/18 02:01:56;;;;;;;21.27;3.00;;;;;;;;;;5027354;28;20573;-72
2023/07/18 02:04:22;;;;;;;17.23;3.60;;;;;;;;;;5024537;28;20041;-72
2023/07/18 02:06:47;;;;;;;26.33;3.90;;;;;;;;;;5055222;28;20037;-72
2023/07/18 02:09:13;;;;;;;19.77;3.58;;;;;;;;;;5023575;28;20075;-72
2023/07/18 02:11:38;;;;;;;22.05;3.95;;;;;;;;;;5002494;28;20033;-72
2023/07/18 02:14:03;;;;;;;23.15;3.67;;;;;;;;;;5005873;28;20171;-72
2023/07/18 02:16:29;;;;;;;20.92;3.58;;;;;;;;;;5020413;28;21055;-72
2023/07/18 02:18:59;;;;;;;21.38;3.40;;;;;;;;;;5014886;28;20068;-72
2023/07/18 02:21:24;;;;;;;21.42;4.07;;;;;;;;;;4999960;28;20970;-73
2023/07/18 02:23:49;;;;;;;20.77;3.80;;;;;;;;;;5002304;28;20044;-73
2023/07/18 02:26:14;;;;;;;21.65;3.38;;;;;;;;;;5021955;28;20394;-72
2023/07/18 02:28:40;;;;;;;27.50;4.10;;;;;;;;;;5053877;28;20176;-72
2023/07/18 02:31:05;;;;;;;21.67;3.33;;;;;;;;;;5036390;28;20044;-72
2023/07/18 02:33:30;;;;;;;20.80;3.60;;;;;;;;;;4998042;28;20122;-72
2023/07/18 02:35:56;;;;;;;23.80;3.40;;;;;;;;;;4996300;28;20038;-72
2023/07/18 02:38:21;;;;;;;24.80;3.35;;;;;;;;;;4998750;28;20038;-72
2023/07/18 02:40:46;;;;;;;16.27;3.28;;;;;;;;;;4999939;28;20033;-73
2023/07/18 02:43:12;;;;;;;21.98;3.83;;;;;;;;;;4999302;28;20121;-73
2023/07/18 02:45:37;;;;;;;23.38;3.30;;;;;;;;;;5002560;28;20061;-73
2023/07/18 02:48:02;;;;;;;22.45;4.47;;;;;;;;;;5048751;28;20846;-72
2023/07/18 02:50:28;;;;;;;23.60;3.55;;;;;;;;;;5023587;28;20120;-73
2023/07/18 02:52:57;;;;;;;24.05;3.83;;;;;;;;;;5021436;28;20040;-70
2023/07/18 02:55:22;;;;;;;26.52;3.72;;;;;;;;;;5022455;28;20037;-70
2023/07/18 02:57:47;;;;;;;29.35;4.32;;;;;;;;;;5021435;28;20623;-72
2023/07/18 03:00:25;;;;;;;18.27;3.47;;;;;;;;;;5025529;28;20037;-71
2023/07/18 03:02:51;;;;;;;18.75;3.85;;;;;;;;;;5022025;28;20034;-72
2023/07/18 03:05:21;;;;;;;18.77;3.63;;;;;;;;;;5021041;28;20043;-73
2023/07/18 03:07:47;;;;;;;24.70;4.50;;;;;;;;;;5032158;28;20075;-71
2023/07/18 03:10:13;;;;;;;26.50;4.20;;;;;;;;;;5020612;28;20036;-70
2023/07/18 03:12:40;;;;;;;18.20;3.70;;;;;;;;;;5020879;28;20106;-71
2023/07/18 03:15:06;;;;;;;19.02;3.70;;;;;;;;;;5020733;28;20057;-72
2023/07/18 03:17:32;;;;;;;15.98;3.28;;;;;;;;;;5019981;28;20668;-72
2023/07/18 03:19:57;;;;;;;23.88;4.15;;;;;;;;;;5019860;28;20037;-72
2023/07/18 03:22:22;;;;;;;24.13;3.90;;;;;;;;;;5021372;28;20079;-72
2023/07/18 03:24:51;;;;;;;20.88;3.60;;;;;;;;;;5050812;28;20655;-73
2023/07/18 03:27:17;;;;;;;22.17;3.88;;;;;;;;;;5023988;28;25157;-72
2023/07/18 03:29:43;;;;;;;18.02;3.78;;;;;;;;;;5022516;28;20036;-71
2023/07/18 03:32:09;;;;;;;18.67;3.90;;;;;;;;;;5020148;28;21546;-71
2023/07/18 03:34:34;;;;;;;25.30;3.80;;;;;;;;;;5017795;28;20041;-72
2023/07/18 03:37:00;;;;;;;18.38;3.45;;;;;;;;;;5019338;28;20053;-73
2023/07/18 03:39:25;;;;;;;20.42;4.15;;;;;;;;;;5020942;28;20067;-71
2023/07/18 03:41:50;;;;;;;24.90;3.55;;;;;;;;;;5027561;28;20030;-72
2023/07/18 03:44:16;;;;;;;28.90;3.53;;;;;;;;;;5000172;28;20111;-73
2023/07/18 03:46:41;;;;;;;23.30;3.75;;;;;;;;;;4997436;28;20044;-70
2023/07/18 03:49:06;;;;;;;21.25;3.58;;;;;;;;;;4999226;28;20029;-72
2023/07/18 03:51:32;;;;;;;22.10;4.43;;;;;;;;;;5001032;28;20030;-72
2023/07/18 03:53:58;;;;;;;25.25;4.28;;;;;;;;;;4998176;28;20040;-73
2023/07/18 03:56:23;;;;;;;19.65;4.18;;;;;;;;;;5016138;28;20044;-71
2023/07/18 03:58:50;;;;;;;20.95;3.75;;;;;;;;;;5018584;28;20585;-71
2023/07/18 04:01:15;;;;;;;23.02;4.32;;;;;;;;;;5015657;28;20056;-72
2023/07/18 04:03:41;;;;;;;26.00;4.53;;;;;;;;;;4996250;28;20128;-71
2023/07/18 04:06:06;;;;;;;14.85;3.67;;;;;;;;;;5015834;28;20037;-72
2023/07/18 04:08:31;;;;;;;27.63;3.70;;;;;;;;;;5001619;28;20065;-72
2023/07/18 04:11:00;;;;;;;22.20;3.97;;;;;;;;;;5000201;28;20172;-72
2023/07/18 04:13:26;;;;;;;19.02;3.60;;;;;;;;;;5013293;28;20034;-73
2023/07/18 04:15:54;;;;;;;33.40;4.72;;;;;;;;;;5016289;28;20041;-71
2023/07/18 04:18:19;;;;;;;20.98;3.70;;;;;;;;;;5014643;28;20036;-71
2023/07/18 04:20:44;;;;;;;24.35;4.43;;;;;;;;;;5020265;28;20067;-71
2023/07/18 04:23:10;;;;;;;25.45;4.05;;;;;;;;;;5019559;28;20835;-72
2023/07/18 04:25:52;;;;;;;18.17;3.38;;;;;;;;;;5019550;28;20037;-72
2023/07/18 04:28:20;;;;;;;19.85;3.70;;;;;;;;;;5048106;28;20090;-72
2023/07/18 04:30:45;;;;;;;20.02;3.60;;;;;;;;;;5019269;28;20030;-72
2023/07/18 04:33:12;;;;;;;18.27;6.15;;;;;;;;;;5034686;28;20039;-73
2023/07/18 04:35:37;;;;;;;26.02;7.00;;;;;;;;;;5020036;28;20037;-72
2023/07/18 04:38:03;;;;;;;27.67;7.82;;;;;;;;;;5019471;28;20076;-72
2023/07/18 04:40:28;;;;;;;33.15;10.80;;;;;;;;;;5015965;28;20032;-72
2023/07/18 04:42:53;;;;;;;34.95;10.65;;;;;;;;;;5020337;28;20072;-72
2023/07/18 04:45:19;;;;;;;42.83;13.35;;;;;;;;;;5020087;28;20100;-72
2023/07/18 04:47:44;;;;;;;45.58;13.30;;;;;;;;;;5021188;28;20029;-72
2023/07/18 04:50:10;;;;;;;47.78;13.32;;;;;;;;;;5016442;28;20140;-72
2023/07/18 04:52:36;;;;;;;35.70;11.27;;;;;;;;;;5019997;28;20030;-72
2023/07/18 04:55:01;;;;;;;28.15;8.32;;;;;;;;;;5048124;28;20044;-72
2023/07/18 04:57:26;;;;;;;27.02;7.90;;;;;;;;;;5019499;28;20029;-71
2023/07/18 04:59:51;;;;;;;39.08;10.35;;;;;;;;;;5008712;28;20026;-73
2023/07/18 05:02:17;;;;;;;40.78;8.70;;;;;;;;;;5030852;28;20037;-72
2023/07/18 05:04:44;;;;;;;35.83;9.75;;;;;;;;;;5002655;28;20070;-73
2023/07/18 05:07:10;;;;;;;36.83;10.57;;;;;;;;;;4999292;28;20148;-69
2023/07/18 05:09:35;;;;;;;35.08;9.18;;;;;;;;;;4999789;28;20042;-70
2023/07/18 05:12:03;;;;;;;30.45;9.30;;;;;;;;;;4999888;28;20742;-69
2023/07/18 05:14:28;;;;;;;20.38;6.90;;;;;;;;;;5002316;28;20796;-69
2023/07/18 05:16:53;;;;;;;30.10;7.63;;;;;;;;;;4998023;28;20034;-70
2023/07/18 05:19:19;;;;;;;24.60;6.43;;;;;;;;;;5000815;28;20091;-69
2023/07/18 05:21:44;;;;;;;26.10;6.50;;;;;;;;;;5030549;28;20099;-70
2023/07/18 05:24:10;;;;;;;25.10;6.00;;;;;;;;;;5020189;28;20049;-70
2023/07/18 05:26:35;;;;;;;327.35;21.80;;;;;;;;;;5049032;28;20045;-69
2023/07/18 05:29:00;;;;;;;85.50;11.60;;;;;;;;;;5001909;28;20077;-69
2023/07/18 05:31:26;;;;;;;26.60;8.88;;;;;;;;;;5021736;28;20639;-69
2023/07/18 05:33:51;;;;;;;44.78;21.23;;;;;;;;;;5020660;28;20029;-69
2023/07/18 05:36:17;;;;;;;32.72;15.25;;;;;;;;;;5022026;28;20387;-70
2023/07/18 05:38:43;;;;;;;22.77;10.48;;;;;;;;;;5012104;28;20110;-71
2023/07/18 05:41:08;;;;;;;22.80;7.63;;;;;;;;;;5001103;28;20048;-70
2023/07/18 05:43:33;;;;;;;24.73;7.20;;;;;;;;;;4998369;28;20041;-71
2023/07/18 05:45:59;;;;;;;21.95;6.90;;;;;;;;;;5010687;28;20070;-70
2023/07/18 05:48:24;;;;;;;30.98;6.57;;;;;;;;;;5016385;28;20034;-72
2023/07/18 05:50:49;;;;;;;105.00;13.95;;;;;;;;;;5018775;28;20037;-70
2023/07/18 05:53:14;;;;;;;153.75;20.02;;;;;;;;;;5017711;28;20037;-70
2023/07/18 05:55:40;;;;;;;113.68;17.63;;;;;;;;;;5016551;28;20059;-69
2023/07/18 05:58:06;;;;;;;20.33;6.63;;;;;;;;;;5023548;28;20037;-72
2023/07/18 06:00:31;;;;;;;20.80;5.45;;;;;;;;;;5027057;28;20158;-73
2023/07/18 06:02:57;;;;;;;22.42;5.60;;;;;;;;;;5024349;28;22464;-73
2023/07/18 06:05:22;;;;;;;19.60;6.55;;;;;;;;;;5023899;28;20037;-72
2023/07/18 06:07:47;;;;;;;21.80;8.98;;;;;;;;;;5029906;28;20103;-72
2023/07/18 06:10:15;;;;;;;23.90;9.75;;;;;;;;;;5025457;28;20037;-74
2023/07/18 06:12:40;;;;;;;21.52;8.75;;;;;;;;;;5016526;28;21432;-71
2023/07/18 06:15:06;;;;;;;15.90;6.50;;;;;;;;;;5018548;28;20032;-73
2023/07/18 06:17:35;;;;;;;17.27;4.93;;;;;;;;;;5035744;28;20037;-73
2023/07/18 06:20:01;;;;;;;17.35;6.00;;;;;;;;;;5014727;28;20049;-74
2023/07/18 06:22:26;;;;;;;17.98;6.65;;;;;;;;;;5003962;28;20035;-71
2023/07/18 06:24:53;;;;;;;47.85;8.27;;;;;;;;;;5007583;28;20067;-70
2023/07/18 06:27:19;;;;;;;19.92;4.20;;;;;;;;;;5010148;28;20863;-71
2023/07/18 06:29:44;;;;;;;15.80;4.22;;;;;;;;;;4994754;28;20141;-71
2023/07/18 06:32:10;;;;;;;14.77;4.20;;;;;;;;;;5024884;28;20642;-72
2023/07/18 06:34:40;;;;;;;16.98;4.55;;;;;;;;;;4993424;28;20377;-70
2023/07/18 06:37:08;;;;;;;15.48;5.80;;;;;;;;;;4996106;28;20037;-70
2023/07/18 06:39:34;;;;;;;16.50;3.97;;;;;;;;;;5012683;28;20670;-75
2023/07/18 06:41:59;;;;;;;14.07;4.20;;;;;;;;;;5008954;28;20403;-72
2023/07/18 06:44:25;;;;;;;15.27;4.40;;;;;;;;;;5012150;28;20498;-72
2023/07/18 06:46:50;;;;;;;14.93;4.55;;;;;;;;;;5027676;28;20037;-71
2023/07/18 06:49:21;;;;;;;17.15;4.70;;;;;;;;;;5013118;28;20160;-71
2023/07/18 06:51:47;;;;;;;18.15;5.22;;;;;;;;;;5011861;28;20169;-70
2023/07/18 06:54:15;;;;;;;17.55;5.15;;;;;;;;;;5014857;28;20284;-72
2023/07/18 06:56:42;;;;;;;17.67;4.90;;;;;;;;;;5024572;28;20036;-71
2023/07/18 06:59:08;;;;;;;19.05;4.78;;;;;;;;;;5013204;28;21613;-73
2023/07/18 07:01:34;;;;;;;143.07;17.08;;;;;;;;;;5011925;28;20037;-72
2023/07/18 07:04:00;;;;;;;25.92;5.00;;;;;;;;;;4996204;28;20136;-72
2023/07/18 07:06:31;;;;;;;12.85;4.10;;;;;;;;;;5027292;28;20029;-73
2023/07/18 07:08:56;;;;;;;17.70;5.28;;;;;;;;;;5018144;28;20162;-73
2023/07/18 07:11:22;;;;;;;16.10;5.00;;;;;;;;;;5019345;28;20036;-71
2023/07/18 07:13:48;;;;;;;19.35;4.97;;;;;;;;;;5018546;28;20128;-73
2023/07/18 07:16:13;;;;;;;17.75;5.22;;;;;;;;;;5018359;28;20481;-72
2023/07/18 07:18:41;;;;;;;52.08;7.65;;;;;;;;;;5016442;28;20123;-73
2023/07/18 07:21:06;;;;;;;28.00;5.28;;;;;;;;;;5019219;28;20095;-71
2023/07/18 07:23:31;;;;;;;28.35;5.43;;;;;;;;;;5008888;28;20041;-68
2023/07/18 07:26:00;;;;;;;18.88;3.75;;;;;;;;;;5018312;28;20032;-68
2023/07/18 07:28:25;;;;;;;20.98;3.75;;;;;;;;;;5019059;28;20033;-69
2023/07/18 07:30:51;;;;;;;18.52;3.65;;;;;;;;;;5020029;28;20642;-68
2023/07/18 07:33:16;;;;;;;24.40;6.70;;;;;;;;;;5015950;28;20041;-69
2023/07/18 07:35:44;;;;;;;12.82;5.20;;;;;;;;;;5018610;28;20120;-69
2023/07/18 07:38:10;;;;;;;16.85;4.03;;;;;;;;;;5014475;28;20456;-71
2023/07/18 07:40:37;;;;;;;16.10;5.10;;;;;;;;;;5013338;28;20144;-70
2023/07/18 07:43:03;;;;;;;17.95;4.90;;;;;;;;;;5011485;28;20037;-70
2023/07/18 07:45:28;;;;;;;15.07;4.57;;;;;;;;;;5045169;28;20040;-72
2023/07/18 07:47:53;;;;;;;14.98;4.75;;;;;;;;;;5010738;28;20638;-68
2023/07/18 07:50:18;;;;;;;60.10;7.38;;;;;;;;;;5012818;28;20098;-68
2023/07/18 07:52:45;;;;;;;20.40;5.25;;;;;;;;;;5014864;28;20037;-70
2023/07/18 07:55:11;;;;;;;16.80;4.68;;;;;;;;;;5013724;28;20036;-69
2023/07/18 07:57:36;;;;;;;23.00;4.53;;;;;;;;;;5017070;28;20044;-69
2023/07/18 08:00:02;;;;;;;56.63;8.18;;;;;;;;;;5015497;28;20494;-68
2023/07/18 08:02:28;;;;;;;46.25;6.60;;;;;;;;;;5011346;28;20176;-71
2023/07/18 08:04:53;;;;;;;18.55;3.80;;;;;;;;;;5013828;28;20056;-71
2023/07/18 08:07:18;;;;;;;12.93;3.65;;;;;;;;;;5009478;28;20041;-70
2023/07/18 08:09:44;;;;;;;14.07;3.38;;;;;;;;;;4991883;28;20514;-70
2023/07/18 08:12:10;;;;;;;20.63;3.70;;;;;;;;;;4994047;28;20417;-71
2023/07/18 08:14:37;;;;;;;12.48;3.05;;;;;;;;;;4996649;28;20046;-72
2023/07/18 08:17:04;;;;;;;13.20;2.90;;;;;;;;;;5010781;28;20109;-71
2023/07/18 08:19:33;;;;;;;13.15;2.97;;;;;;;;;;5048431;28;20029;-72
2023/07/18 08:21:59;;;;;;;15.60;3.17;;;;;;;;;;5018068;28;20048;-73
2023/07/18 08:24:24;;;;;;;15.82;3.58;;;;;;;;;;5004485;28;20514;-73
2023/07/18 08:26:49;;;;;;;14.60;3.53;;;;;;;;;;4998934;28;20076;-73
2023/07/18 08:29:15;;;;;;;13.02;3.20;;;;;;;;;;4994871;28;20076;-72
2023/07/18 08:31:41;;;;;;;12.60;3.35;;;;;;;;;;4993342;28;20033;-74
2023/07/18 08:34:06;;;;;;;15.85;3.97;;;;;;;;;;4998472;28;20643;-73
2023/07/18 08:36:35;;;;;;;12.18;3.67;;;;;;;;;;4998766;28;20121;-72
2023/07/18 08:39:01;;;;;;;20.15;4.22;;;;;;;;;;5016067;28;20044;-71
2023/07/18 08:41:28;;;;;;;17.40;3.72;;;;;;;;;;4997271;28;20025;-74
2023/07/18 08:43:54;;;;;;;18.90;3.97;;;;;;;;;;5011145;28;20106;-69
2023/07/18 08:46:20;;;;;;;14.93;3.40;;;;;;;;;;5009013;28;20049;-71
2023/07/18 08:48:46;;;;;;;14.82;3.72;;;;;;;;;;5024096;28;20064;-69
2023/07/18 08:51:12;;;;;;;14.10;3.20;;;;;;;;;;5013783;28;20561;-71
2023/07/18 08:53:43;;;;;;;17.63;3.85;;;;;;;;;;5012820;28;20061;-71
2023/07/18 08:56:10;;;;;;;15.57;3.63;;;;;;;;;;4991643;28;20654;-71
2023/07/18 08:58:36;;;;;;;19.45;5.10;;;;;;;;;;4997502;28;20029;-70
2023/07/18 09:01:05;;;;;;;26.73;4.10;;;;;;;;;;5012750;28;20087;-71
2023/07/18 09:03:30;;;;;;;24.55;3.92;;;;;;;;;;4993904;28;20041;-71
2023/07/18 09:05:57;;;;;;;14.40;3.20;;;;;;;;;;5007431;28;20087;-70
2023/07/18 09:08:23;;;;;;;16.48;3.25;;;;;;;;;;5016446;28;20037;-72
2023/07/18 09:11:00;;;;;;;11.85;3.67;;;;;;;;;;5053477;28;20048;-72
2023/07/18 09:13:27;;;;;;;15.85;4.35;;;;;;;;;;5012925;28;20080;-71
2023/07/18 09:15:55;;;;;;;17.77;3.80;;;;;;;;;;5022045;28;20084;-73
2023/07/18 09:18:21;;;;;;;18.08;3.92;;;;;;;;;;5018227;28;20037;-71
2023/07/18 09:20:46;;;;;;;32.05;4.90;;;;;;;;;;5018000;28;20136;-71
2023/07/18 09:23:13;;;;;;;25.70;4.15;;;;;;;;;;5018662;28;20102;-70
2023/07/18 09:25:39;;;;;;;17.17;3.65;;;;;;;;;;5019604;28;20040;-70
2023/07/18 09:28:08;;;;;;;18.30;3.10;;;;;;;;;;5014940;28;20037;-73
2023/07/18 09:30:36;;;;;;;10.63;2.65;;;;;;;;;;5021539;28;20635;-71
2023/07/18 09:33:05;;;;;;;11.95;2.55;;;;;;;;;;5021841;28;20040;-71
2023/07/18 09:35:34;;;;;;;9.98;2.20;;;;;;;;;;5050063;28;20604;-72
2023/07/18 09:38:00;;;;;;;12.40;1.60;;;;;;;;;;5020967;28;20257;-72
2023/07/18 09:40:25;;;;;;;7.95;1.83;;;;;;;;;;5019534;28;20513;-73
2023/07/18 09:42:51;;;;;;;11.18;1.65;;;;;;;;;;5003037;28;20087;-71
2023/07/18 09:45:17;;;;;;;8.52;1.77;;;;;;;;;;5020533;28;20049;-70
2023/07/18 09:47:44;;;;;;;10.70;1.85;;;;;;;;;;5017566;28;20060;-73
2023/07/18 09:50:10;;;;;;;6.65;1.80;;;;;;;;;;5019237;28;20572;-72
2023/07/18 09:52:39;;;;;;;12.80;2.10;;;;;;;;;;5018300;28;20041;-72
2023/07/18 09:55:06;;;;;;;8.13;1.55;;;;;;;;;;5014854;28;20037;-71
2023/07/18 09:57:32;;;;;;;10.68;1.92;;;;;;;;;;5047011;28;20478;-73
2023/07/18 10:00:01;;;;;;;9.48;1.67;;;;;;;;;;5021122;28;20577;-74
2023/07/18 10:02:26;;;;;;;10.98;1.65;;;;;;;;;;5005331;28;20132;-68
2023/07/18 10:04:52;;;;;;;9.38;1.90;;;;;;;;;;4998123;28;20049;-67
2023/07/18 10:07:17;;;;;;;9.77;1.70;;;;;;;;;;4998322;28;20040;-67
2023/07/18 10:09:42;;;;;;;9.13;1.50;;;;;;;;;;5000498;28;20166;-68
2023/07/18 10:12:08;;;;;;;9.10;1.85;;;;;;;;;;5029484;28;20168;-67
2023/07/18 10:14:42;;;;;;;11.20;2.03;;;;;;;;;;5014709;28;20041;-69
2023/07/18 10:17:07;;;;;;;11.43;1.83;;;;;;;;;;5007368;28;20049;-67
2023/07/18 10:19:51;;;;;;;9.52;1.70;;;;;;;;;;4995281;28;20493;-68
2023/07/18 10:22:26;;;;;;;10.65;1.67;;;;;;;;;;5015798;28;20045;-68
2023/07/18 10:24:52;;;;;;;9.85;1.98;;;;;;;;;;4991906;28;20670;-73
2023/07/18 10:27:17;;;;;;;6.50;1.50;;;;;;;;;;4981782;28;20045;-67
2023/07/18 10:30:03;;;;;;;11.77;1.92;;;;;;;;;;5015790;28;20115;-66
2023/07/18 10:32:32;;;;;;;8.25;1.77;;;;;;;;;;5012991;28;20045;-70
2023/07/18 10:34:58;;;;;;;5.68;1.38;;;;;;;;;;5034047;28;20033;-69
2023/07/18 10:37:26;;;;;;;13.65;2.00;;;;;;;;;;5048327;28;20151;-66
2023/07/18 10:39:52;;;;;;;10.93;1.50;;;;;;;;;;5006439;28;20064;-68
2023/07/18 10:42:25;;;;;;;11.30;2.15;;;;;;;;;;5012584;28;22299;-66
2023/07/18 10:44:59;;;;;;;9.80;1.95;;;;;;;;;;5011207;28;20072;-66
2023/07/18 10:47:25;;;;;;;11.18;2.00;;;;;;;;;;5050023;28;20041;-69
2023/07/18 10:49:50;;;;;;;4.95;1.65;;;;;;;;;;5014706;28;20029;-67
2023/07/18 10:52:16;;;;;;;8.63;1.70;;;;;;;;;;5014712;28;20053;-67
2023/07/18 10:55:00;;;;;;;8.00;1.38;;;;;;;;;;5018966;28;20040;-65
2023/07/18 10:57:27;;;;;;;7.15;1.67;;;;;;;;;;5013886;28;20785;-66
2023/07/18 10:59:52;;;;;;;10.25;2.00;;;;;;;;;;5013107;28;20184;-68
2023/07/18 11:02:19;;;;;;;10.15;1.48;;;;;;;;;;4997626;28;20037;-68
2023/07/18 11:04:45;;;;;;;6.38;1.70;;;;;;;;;;5015398;28;20057;-67
2023/07/18 11:07:10;;;;;;;8.88;1.80;;;;;;;;;;5013348;28;20098;-67
2023/07/18 11:09:36;;;;;;;11.65;1.80;;;;;;;;;;5019361;28;20529;-68
2023/07/18 11:12:04;;;;;;;10.10;1.75;;;;;;;;;;5013470;28;20538;-68
2023/07/18 11:14:39;;;;;;;40.55;4.45;;;;;;;;;;5016000;28;20045;-67
2023/07/18 11:17:23;;;;;;;13.00;1.85;;;;;;;;;;5044113;28;20052;-67
2023/07/18 11:19:49;;;;;;;7.57;1.60;;;;;;;;;;5014610;28;20410;-67
2023/07/18 11:22:14;;;;;;;7.57;1.55;;;;;;;;;;5009825;28;20049;-67
2023/07/18 11:24:41;;;;;;;7.75;1.73;;;;;;;;;;5029281;28;20573;-67
2023/07/18 11:27:23;;;;;;;5.75;1.27;;;;;;;;;;5014973;28;20036;-66
2023/07/18 11:29:58;;;;;;;8.32;1.25;;;;;;;;;;4995275;28;20038;-66
2023/07/18 11:32:37;;;;;;;6.82;1.20;;;;;;;;;;4999265;28;20086;-67
2023/07/18 11:35:06;;;;;;;8.38;1.50;;;;;;;;;;5013028;28;20126;-67
2023/07/18 11:37:31;;;;;;;6.10;1.40;;;;;;;;;;5015667;28;20045;-67
2023/07/18 11:39:57;;;;;;;7.35;1.33;;;;;;;;;;5016448;28;20079;-68
2023/07/18 11:42:39;;;;;;;8.25;1.40;;;;;;;;;;5015762;28;20046;-66
2023/07/18 11:45:04;;;;;;;;;;;;;;;;;;5008166;28;20124;-65
2023/07/18 11:47:32;;;;;;;10.00;1.53;;;;;;;;;;4994763;28;19964;-66
2023/07/18 11:50:00;;;;;;;16.13;2.30;;;;;;;;;;4992747;28;20041;-66
2023/07/18 11:52:28;;;;;;;;;;;;;;;;;;5026034;28;20053;-68
2023/07/18 11:54:53;;;;;;;11.43;1.60;;;;;;;;;;5002721;28;19939;-68
2023/07/18 11:57:21;;;;;;;15.27;1.95;;;;;;;;;;4994971;28;20037;-67
2023/07/18 11:59:46;;;;;;;11.38;1.67;;;;;;;;;;4991519;28;20033;-66
2023/07/18 12:02:12;;;;;;;8.50;1.65;;;;;;;;;;4995258;28;20490;-66
2023/07/18 12:04:39;;;;;;;9.50;2.10;;;;;;;;;;4995728;28;20138;-67
2023/07/18 12:07:04;;;;;;;10.90;2.05;;;;;;;;;;5012004;28;20029;-67
2023/07/18 12:09:30;;;;;;;6.97;1.45;;;;;;;;;;5015490;28;20049;-68
2023/07/18 12:11:56;;;;;;;12.23;1.95;;;;;;;;;;5014388;28;20029;-69
2023/07/18 12:14:22;;;;;;;5.78;1.40;;;;;;;;;;5045719;28;20048;-68
2023/07/18 12:16:47;;;;;;;9.40;1.55;;;;;;;;;;5015061;28;20043;-69
2023/07/18 12:19:12;;;;;;;5.57;1.58;;;;;;;;;;5014450;28;20045;-66
2023/07/18 12:21:40;;;;;;;7.63;1.35;;;;;;;;;;5044371;28;20036;-68
2023/07/18 12:24:05;;;;;;;7.70;1.50;;;;;;;;;;5014506;28;20101;-68
2023/07/18 12:26:31;;;;;;;11.32;1.63;;;;;;;;;;5014544;28;20607;-67
2023/07/18 12:28:56;;;;;;;8.52;1.40;;;;;;;;;;5048109;28;20037;-70
2023/07/18 12:31:22;;;;;;;5.25;1.50;;;;;;;;;;5016538;28;20038;-72
2023/07/18 12:33:47;;;;;;;8.02;1.50;;;;;;;;;;5014340;28;20048;-71
2023/07/18 12:36:12;;;;;;;6.45;1.30;;;;;;;;;;5015687;28;20044;-71
2023/07/18 12:38:38;;;;;;;11.45;1.90;;;;;;;;;;4999911;28;20858;-72
2023/07/18 12:41:03;;;;;;;8.13;2.30;;;;;;;;;;5007074;28;20065;-71
2023/07/18 12:43:28;;;;;;;10.63;1.90;;;;;;;;;;5001348;28;20040;-70
2023/07/18 12:45:54;;;;;;;5.95;1.60;;;;;;;;;;4999299;28;20049;-70
2023/07/18 12:48:19;;;;;;;12.65;1.77;;;;;;;;;;4996888;28;20040;-77
2023/07/18 12:50:45;;;;;;;6.55;1.55;;;;;;;;;;4992524;28;20552;-74
2023/07/18 12:53:10;;;;;;;12.77;1.80;;;;;;;;;;4998522;28;20125;-77
2023/07/18 12:55:38;;;;;;;8.02;1.45;;;;;;;;;;4996904;28;20133;-75
2023/07/18 12:58:03;;;;;;;7.13;1.73;;;;;;;;;;4999417;28;20397;-77
2023/07/18 13:00:29;;;;;;;31.75;3.05;;;;;;;;;;5003591;28;20029;-74
2023/07/18 13:02:57;;;;;;;6.85;1.52;;;;;;;;;;5001247;28;20361;-75
2023/07/18 13:05:23;;;;;;;11.90;1.80;;;;;;;;;;5008893;28;20041;-73
2023/07/18 13:07:53;;;;;;;6.50;1.50;;;;;;;;;;5011281;28;20552;-75
2023/07/18 13:10:18;;;;;;;10.88;1.92;;;;;;;;;;5016885;28;20033;-74
2023/07/18 13:12:43;;;;;;;9.02;1.48;;;;;;;;;;5017382;28;20653;-74
2023/07/18 13:15:09;;;;;;;7.65;1.55;;;;;;;;;;5048644;28;20253;-73
2023/07/18 13:17:34;;;;;;;8.48;1.52;;;;;;;;;;5017368;28;20033;-75
2023/07/18 13:19:59;;;;;;;11.68;1.50;;;;;;;;;;4998201;28;21888;-71
2023/07/18 13:22:25;;;;;;;18.85;2.40;;;;;;;;;;5016178;28;20028;-71
2023/07/18 13:24:50;;;;;;;8.80;1.90;;;;;;;;;;5019641;28;20755;-73
2023/07/18 13:27:15;;;;;;;6.90;1.60;;;;;;;;;;5021760;28;20041;-73
2023/07/18 13:29:42;;;;;;;7.50;1.48;;;;;;;;;;5021650;28;20095;-70
2023/07/18 13:32:07;;;;;;;10.38;1.42;;;;;;;;;;5023906;28;20045;-73
2023/07/18 13:34:34;;;;;;;13.40;1.92;;;;;;;;;;5022553;28;20045;-68
2023/07/18 13:36:59;;;;;;;6.10;1.50;;;;;;;;;;5026843;28;20124;-71
2023/07/18 13:39:25;;;;;;;8.43;1.73;;;;;;;;;;5057106;28;20037;-71
2023/07/18 13:41:52;;;;;;;48.13;2.90;;;;;;;;;;5057970;28;20207;-72
2023/07/18 13:44:17;;;;;;;7.63;1.33;;;;;;;;;;5039907;28;20075;-72
2023/07/18 13:46:43;;;;;;;9.13;1.20;;;;;;;;;;5022090;28;20481;-70
2023/07/18 13:49:08;;;;;;;4.90;1.30;;;;;;;;;;5022007;28;20037;-72
2023/07/18 13:51:33;;;;;;;7.18;1.60;;;;;;;;;;5021627;28;20052;-69
2023/07/18 13:53:59;;;;;;;7.35;1.60;;;;;;;;;;5021211;28;20040;-72
2023/07/18 13:56:24;;;;;;;6.35;1.42;;;;;;;;;;5042277;28;20038;-69
2023/07/18 13:58:49;;;;;;;5.28;1.10;;;;;;;;;;5025232;28;20032;-72
2023/07/18 14:01:15;;;;;;;5.22;1.35;;;;;;;;;;5023946;28;20045;-69
2023/07/18 14:03:40;;;;;;;7.22;1.48;;;;;;;;;;5027409;28;20106;-72
2023/07/18 14:06:08;;;;;;;9.43;1.48;;;;;;;;;;5026022;28;20551;-68
2023/07/18 14:08:36;;;;;;;5.15;1.40;;;;;;;;;;5021113;28;20037;-71
2023/07/18 14:11:02;;;;;;;5.82;1.35;;;;;;;;;;5025010;28;20057;-72
2023/07/18 14:13:27;;;;;;;5.80;1.15;;;;;;;;;;5010159;28;20127;-70
2023/07/18 14:15:54;;;;;;;6.05;1.30;;;;;;;;;;5002578;28;20046;-74
2023/07/18 14:18:22;;;;;;;6.45;1.25;;;;;;;;;;5012887;28;20503;-72
2023/07/18 14:20:47;;;;;;;3.95;0.90;;;;;;;;;;5026158;28;20035;-71
2023/07/18 14:23:12;;;;;;;6.65;1.20;;;;;;;;;;5023953;28;20095;-71
2023/07/18 14:25:38;;;;;;;3.38;1.23;;;;;;;;;;5025980;28;20025;-73
2023/07/18 14:28:03;;;;;;;4.82;1.20;;;;;;;;;;5022920;28;20037;-71